Time;durP1;ratioP1;P1;durP2;ratioP2;P2;SDS_P1;SDS_P2;PMS_P1;PMS_P2;Temp;Humidity;BMP_temperature;BMP_pressure;BME280_temperature;BME280_humidity;BME280_pressure;Samples;Min_cycle;Max_cycle;Signal;HPM_P1;HPM_P2
2023/01/11 00:01:20;;;;;;;3.88;3.58;;;8.90;99.90;;;;;;5077197;28;20476;-75
2023/01/11 00:03:46;;;;;;;4.78;3.72;;;8.90;99.90;;;;;;5059464;28;20115;-74
2023/01/11 00:06:11;;;;;;;4.00;3.60;;;8.90;99.90;;;;;;5059241;28;20441;-73
2023/01/11 00:08:37;;;;;;;4.60;3.65;;;9.00;99.90;;;;;;5059358;28;20168;-74
2023/01/11 00:11:04;;;;;;;5.40;3.42;;;9.00;99.90;;;;;;5077088;28;20098;-73
2023/01/11 00:13:30;;;;;;;3.92;3.53;;;9.00;99.90;;;;;;5076559;28;20554;-75
2023/01/11 00:15:55;;;;;;;3.95;3.65;;;9.00;99.90;;;;;;5077118;28;20040;-75
2023/01/11 00:18:21;;;;;;;4.20;3.58;;;9.00;99.90;;;;;;5059186;28;20044;-75
2023/01/11 00:20:47;;;;;;;4.07;3.22;;;9.00;99.90;;;;;;5059151;28;20048;-75
2023/01/11 00:23:13;;;;;;;4.65;3.78;;;9.10;99.90;;;;;;5058903;28;20485;-75
2023/01/11 00:25:38;;;;;;;5.55;3.60;;;9.10;99.90;;;;;;5058902;28;20090;-75
2023/01/11 00:28:05;;;;;;;3.58;3.28;;;9.10;99.90;;;;;;5077086;28;20048;-75
2023/01/11 00:30:31;;;;;;;3.45;3.13;;;9.20;99.90;;;;;;5076444;28;20385;-73
2023/01/11 00:32:58;;;;;;;3.72;3.42;;;9.20;99.90;;;;;;5077437;28;20425;-74
2023/01/11 00:35:26;;;;;;;3.35;3.05;;;9.20;99.90;;;;;;5059376;28;20431;-74
2023/01/11 00:37:53;;;;;;;3.53;3.15;;;9.20;99.90;;;;;;5076877;28;20113;-74
2023/01/11 00:40:19;;;;;;;3.15;2.85;;;9.20;99.90;;;;;;5076362;28;20043;-74
2023/01/11 00:48:14;;;;;;;2.72;2.47;;;9.30;99.90;;;;;;5076108;28;20488;-73
2023/01/11 00:50:40;;;;;;;3.65;3.10;;;9.30;99.90;;;;;;5076407;28;20036;-74
2023/01/11 00:53:07;;;;;;;3.53;3.22;;;9.30;99.90;;;;;;5075884;28;20040;-74
2023/01/11 00:55:33;;;;;;;4.30;3.40;;;9.40;99.90;;;;;;5076028;28;20040;-74
2023/01/11 00:58:00;;;;;;;3.40;3.00;;;9.40;99.90;;;;;;5076879;28;20420;-74
2023/01/11 01:00:27;;;;;;;3.75;3.45;;;9.40;99.90;;;;;;5076100;28;20429;-74
2023/01/11 01:02:53;;;;;;;3.42;2.80;;;9.50;99.90;;;;;;5076462;28;20083;-74
2023/01/11 01:05:18;;;;;;;3.47;3.15;;;9.40;99.90;;;;;;5075226;28;20040;-74
2023/01/11 01:07:44;;;;;;;3.72;3.15;;;9.50;99.90;;;;;;5041927;28;20045;-74
2023/01/11 01:10:12;;;;;;;3.20;2.92;;;9.50;99.90;;;;;;5085761;28;20084;-74
2023/01/11 01:15:22;;;;;;;3.60;2.97;;;9.60;99.90;;;;;;5081103;28;20080;-72
2023/01/11 01:17:51;;;;;;;4.00;3.45;;;9.60;99.90;;;;;;5075762;28;20044;-73
2023/01/11 01:20:16;;;;;;;4.47;3.00;;;9.60;99.90;;;;;;5075890;28;20051;-74
2023/01/11 01:22:42;;;;;;;2.88;2.63;;;9.60;99.90;;;;;;5075717;28;20443;-73
2023/01/11 01:25:08;;;;;;;3.03;2.72;;;9.60;99.90;;;;;;5042195;28;20040;-74
2023/01/11 01:27:34;;;;;;;3.75;2.92;;;9.60;99.90;;;;;;5058448;28;20194;-74
2023/01/11 01:30:00;;;;;;;3.05;2.75;;;9.60;99.90;;;;;;5058151;28;20128;-73
2023/01/11 01:32:25;;;;;;;4.07;3.25;;;9.60;99.90;;;;;;5075372;28;20094;-74
2023/01/11 01:34:51;;;;;;;2.90;2.60;;;9.60;99.90;;;;;;5076271;28;20471;-73
2023/01/11 01:37:17;;;;;;;2.60;2.40;;;9.70;99.90;;;;;;5058208;28;20072;-74
2023/01/11 01:39:42;;;;;;;3.45;3.15;;;9.70;99.90;;;;;;5075220;28;20040;-73
2023/01/11 01:42:16;;;;;;;2.97;2.70;;;9.70;99.90;;;;;;5075381;28;20437;-75
2023/01/11 01:44:58;;;;;;;3.67;2.63;;;9.70;99.90;;;;;;5075038;28;20117;-74
2023/01/11 01:47:50;;;;;;;3.22;2.92;;;9.80;99.90;;;;;;5075119;28;20496;-75
2023/01/11 01:50:26;;;;;;;3.25;2.47;;;9.80;99.90;;;;;;5074864;28;20109;-75
2023/01/11 01:52:58;;;;;;;3.10;2.80;;;9.80;99.90;;;;;;5075126;28;20386;-74
2023/01/11 01:55:28;;;;;;;2.97;2.38;;;9.90;99.90;;;;;;5074927;28;20449;-75
2023/01/11 01:58:01;;;;;;;3.30;2.60;;;9.80;99.90;;;;;;5075673;28;20559;-74
2023/01/11 02:00:27;;;;;;;3.47;3.17;;;9.90;99.90;;;;;;5058642;28;20044;-73
2023/01/11 02:02:54;;;;;;;3.65;2.20;;;9.90;99.90;;;;;;5056653;28;20040;-73
2023/01/11 02:05:20;;;;;;;3.42;2.75;;;9.90;99.90;;;;;;5074595;28;20052;-74
2023/01/11 02:07:46;;;;;;;2.67;2.47;;;10.00;99.90;;;;;;5074432;28;20064;-74
2023/01/11 02:10:19;;;;;;;2.58;2.38;;;10.00;99.90;;;;;;5074810;28;20434;-74
2023/01/11 02:13:07;;;;;;;2.15;2.05;;;10.00;99.90;;;;;;5057784;28;20056;-73
2023/01/11 02:15:34;;;;;;;3.38;2.78;;;10.00;99.90;;;;;;5057377;28;20174;-74
2023/01/11 02:18:00;;;;;;;3.03;2.55;;;10.00;99.90;;;;;;5073572;28;20041;-74
2023/01/11 02:20:44;;;;;;;2.85;2.53;;;10.00;99.90;;;;;;5074412;28;20048;-74
2023/01/11 02:23:29;;;;;;;2.55;2.25;;;10.10;99.90;;;;;;5056530;28;20044;-73
2023/01/11 02:26:18;;;;;;;2.20;2.00;;;10.10;99.90;;;;;;5074351;28;20131;-73
2023/01/11 02:29:04;;;;;;;2.60;2.40;;;10.10;99.90;;;;;;5075235;28;20073;-72
2023/01/11 02:31:37;;;;;;;3.25;2.30;;;10.20;99.90;;;;;;5074101;28;20469;-72
2023/01/11 02:34:14;;;;;;;;;;;10.20;99.90;;;;;;5074650;28;20049;-74
2023/01/11 02:36:51;;;;;;;2.65;1.90;;;10.90;99.90;;;;;;5074561;28;19916;-73
2023/01/11 02:39:51;;;;;;;2.05;1.85;;;10.20;99.90;;;;;;5057046;28;20053;-73
2023/01/11 02:45:31;;;;;;;2.28;2.08;;;10.30;99.90;;;;;;5074220;28;20563;-73
2023/01/11 02:48:02;;;;;;;2.17;1.98;;;10.30;99.90;;;;;;5074199;28;20063;-73
2023/01/11 02:50:33;;;;;;;1.60;1.50;;;10.30;99.90;;;;;;5074465;28;20051;-73
2023/01/11 02:53:22;;;;;;;1.80;1.70;;;10.40;99.90;;;;;;5073914;28;20086;-72
2023/01/11 02:55:53;;;;;;;2.17;1.92;;;10.40;99.90;;;;;;5073941;28;20385;-73
2023/01/11 02:58:21;;;;;;;2.17;1.52;;;10.40;99.90;;;;;;5074608;28;20097;-73
2023/01/11 03:00:48;;;;;;;2.00;1.90;;;10.40;99.90;;;;;;5056364;28;20055;-73
2023/01/11 03:03:18;;;;;;;2.05;1.63;;;10.40;99.90;;;;;;5073854;28;20094;-72
2023/01/11 03:05:50;;;;;;;3.10;2.25;;;10.40;99.90;;;;;;5073565;28;20040;-73
2023/01/11 03:08:37;;;;;;;2.03;1.90;;;10.40;99.90;;;;;;5073922;28;20036;-72
2023/01/11 03:14:24;;;;;;;1.52;1.42;;;10.50;99.90;;;;;;5081595;28;20059;-72
2023/01/11 03:17:05;;;;;;;1.80;1.55;;;10.50;99.90;;;;;;5078889;28;20430;-72
2023/01/11 03:19:43;;;;;;;2.00;1.77;;;10.50;99.90;;;;;;5074314;28;20041;-72
2023/01/11 03:22:14;;;;;;;1.75;1.65;;;10.60;99.90;;;;;;5074717;28;20052;-73
2023/01/11 03:24:51;;;;;;;1.95;1.60;;;10.50;99.90;;;;;;5073849;28;20044;-71
2023/01/11 03:27:26;;;;;;;2.78;1.55;;;10.50;99.90;;;;;;5074190;28;20086;-72
2023/01/11 03:30:15;;;;;;;1.35;1.20;;;10.30;99.90;;;;;;5073338;28;20539;-72
2023/01/11 03:32:46;;;;;;;1.38;1.27;;;10.60;99.90;;;;;;5073698;28;20036;-72
2023/01/11 03:35:27;;;;;;;1.50;1.40;;;10.60;99.90;;;;;;5073150;28;20056;-72
2023/01/11 03:38:07;;;;;;;2.20;1.52;;;10.60;99.90;;;;;;5073929;28;20055;-72
2023/01/11 03:40:46;;;;;;;1.58;1.30;;;10.60;99.90;;;;;;5073635;28;20178;-73
2023/01/11 03:43:15;;;;;;;1.30;1.20;;;10.70;99.90;;;;;;5073881;28;20045;-71
2023/01/11 03:45:49;;;;;;;1.10;1.00;;;10.60;99.90;;;;;;5055472;28;20044;-72
2023/01/11 03:48:23;;;;;;;1.05;0.95;;;10.70;99.90;;;;;;5073293;28;20056;-72
2023/01/11 03:50:52;;;;;;;1.13;0.90;;;10.70;99.90;;;;;;5073513;28;20076;-71
2023/01/11 03:53:22;;;;;;;1.15;1.10;;;10.70;99.90;;;;;;5073116;28;20045;-72
2023/01/11 03:55:53;;;;;;;0.80;0.80;;;10.70;99.90;;;;;;5073237;28;20044;-72
2023/01/11 03:58:19;;;;;;;1.25;1.15;;;10.70;99.90;;;;;;5074157;28;20056;-71
2023/01/11 04:00:45;;;;;;;0.70;0.70;;;10.80;99.90;;;;;;5073072;28;20457;-71
2023/01/11 04:03:11;;;;;;;1.00;0.82;;;10.80;99.90;;;;;;5072980;28;20040;-71
2023/01/11 04:05:42;;;;;;;0.73;0.70;;;10.70;99.90;;;;;;5072780;28;20053;-72
2023/01/11 04:08:09;;;;;;;0.50;0.50;;;10.80;99.90;;;;;;5056164;28;20373;-72
2023/01/11 04:10:35;;;;;;;0.50;0.50;;;10.80;99.90;;;;;;5073090;28;20070;-73
2023/01/11 04:13:01;;;;;;;0.63;0.63;;;10.80;99.90;;;;;;5039024;28;20082;-73
2023/01/11 04:15:29;;;;;;;0.85;0.80;;;10.90;99.90;;;;;;5073090;28;20067;-73
2023/01/11 04:17:55;;;;;;;2.20;2.00;;;10.80;99.90;;;;;;5055961;28;20365;-73
2023/01/11 04:20:20;;;;;;;0.82;0.82;;;10.90;99.90;;;;;;5055440;28;20048;-72
2023/01/11 04:22:46;;;;;;;0.95;0.80;;;11.00;99.90;;;;;;5073336;28;20044;-72
2023/01/11 04:25:12;;;;;;;1.10;0.98;;;10.90;99.90;;;;;;5073494;28;20036;-72
2023/01/11 04:27:39;;;;;;;1.30;1.25;;;10.90;99.90;;;;;;5073602;28;20132;-73
2023/01/11 04:30:05;;;;;;;1.15;1.05;;;10.90;99.90;;;;;;5073171;28;20037;-73
2023/01/11 04:32:31;;;;;;;1.48;1.38;;;11.00;99.90;;;;;;5054956;28;20036;-72
2023/01/11 04:34:56;;;;;;;1.75;1.48;;;11.00;99.90;;;;;;5073111;28;20044;-73
2023/01/11 04:37:22;;;;;;;2.28;1.60;;;11.00;99.90;;;;;;5055166;28;20052;-72
2023/01/11 04:39:48;;;;;;;2.75;1.67;;;11.00;99.90;;;;;;5072502;28;20064;-73
2023/01/11 04:42:19;;;;;;;3.28;1.90;;;11.00;99.90;;;;;;5076311;28;20048;-72
2023/01/11 04:44:49;;;;;;;2.63;2.10;;;11.00;99.90;;;;;;5077155;28;20068;-71
2023/01/11 04:47:16;;;;;;;4.65;2.40;;;11.10;99.90;;;;;;5076231;28;20040;-71
2023/01/11 04:49:43;;;;;;;6.43;2.85;;;11.00;99.90;;;;;;5076481;28;20047;-72
2023/01/11 04:52:10;;;;;;;6.57;3.05;;;11.10;99.90;;;;;;5076151;28;20076;-72
2023/01/11 04:54:36;;;;;;;6.97;3.00;;;11.10;99.90;;;;;;5075948;28;20051;-72
2023/01/11 04:57:02;;;;;;;7.45;3.08;;;11.10;99.90;;;;;;5075468;28;20419;-72
2023/01/11 04:59:28;;;;;;;11.15;4.75;;;11.10;99.90;;;;;;5075801;28;20462;-72
2023/01/11 05:01:54;;;;;;;7.22;3.30;;;11.10;99.90;;;;;;5076054;28;20043;-73
2023/01/11 05:04:20;;;;;;;9.35;3.25;;;11.10;99.90;;;;;;5058693;28;20041;-72
2023/01/11 05:06:45;;;;;;;7.10;4.03;;;11.10;99.90;;;;;;5075700;28;20128;-73
2023/01/11 05:09:17;;;;;;;13.38;4.53;;;11.20;99.90;;;;;;5075687;28;20045;-74
2023/01/11 05:11:43;;;;;;;9.73;3.88;;;11.10;99.90;;;;;;5076859;28;20041;-74
2023/01/11 05:14:09;;;;;;;9.07;3.55;;;11.20;99.90;;;;;;5076500;28;20527;-74
2023/01/11 05:16:36;;;;;;;11.98;4.00;;;11.20;99.90;;;;;;5075496;28;20099;-75
2023/01/11 05:19:02;;;;;;;14.05;3.53;;;11.10;99.90;;;;;;5075363;28;20123;-73
2023/01/11 05:21:32;;;;;;;12.18;4.25;;;11.10;99.90;;;;;;5075362;28;20085;-73
2023/01/11 05:24:00;;;;;;;10.90;3.80;;;11.10;99.90;;;;;;5075452;28;20048;-73
2023/01/11 05:26:31;;;;;;;6.50;2.92;;;11.10;99.90;;;;;;5075655;28;20127;-73
2023/01/11 05:28:59;;;;;;;10.35;3.50;;;11.10;99.90;;;;;;5075843;28;20055;-73
2023/01/11 05:31:25;;;;;;;8.45;3.35;;;11.10;99.90;;;;;;5075836;28;20040;-73
2023/01/11 05:33:51;;;;;;;12.25;4.10;;;11.00;99.90;;;;;;5075529;28;20170;-73
2023/01/11 05:36:21;;;;;;;9.50;4.93;;;11.00;99.90;;;;;;5075701;28;20056;-74
2023/01/11 05:38:49;;;;;;;12.88;4.03;;;11.00;99.90;;;;;;5075908;28;20066;-75
2023/01/11 05:41:17;;;;;;;9.00;3.45;;;10.90;99.90;;;;;;5075187;28;20428;-74
2023/01/11 05:46:28;;;;;;;15.00;3.95;;;11.00;99.90;;;;;;5075155;28;20491;-74
2023/01/11 05:48:54;;;;;;;8.35;3.28;;;10.90;99.90;;;;;;5064933;28;20037;-73
2023/01/11 05:51:21;;;;;;;7.93;4.32;;;11.00;99.90;;;;;;5054747;28;20041;-74
2023/01/11 05:53:47;;;;;;;11.43;4.13;;;10.90;99.90;;;;;;5054789;28;20041;-74
2023/01/11 05:56:13;;;;;;;15.98;4.10;;;10.90;99.90;;;;;;5054628;28;20052;-75
2023/01/11 05:58:39;;;;;;;7.35;3.22;;;10.90;99.90;;;;;;5054283;28;20072;-74
2023/01/11 06:01:05;;;;;;;10.95;3.72;;;10.90;99.90;;;;;;5054248;28;20080;-74
2023/01/11 06:03:31;;;;;;;12.35;3.83;;;10.90;99.90;;;;;;5054147;28;20473;-74
2023/01/11 06:05:58;;;;;;;6.82;3.03;;;10.90;99.90;;;;;;5054488;28;20124;-74
2023/01/11 06:08:25;;;;;;;13.52;3.47;;;10.90;99.90;;;;;;5036945;28;20098;-75
2023/01/11 06:10:55;;;;;;;11.88;3.63;;;10.90;99.90;;;;;;5054672;28;20040;-74
2023/01/11 06:13:27;;;;;;;11.45;3.67;;;10.80;99.90;;;;;;5054912;28;20040;-76
2023/01/11 06:16:12;;;;;;;9.02;4.25;;;10.80;99.90;;;;;;5054451;28;20052;-74
2023/01/11 06:18:40;;;;;;;10.43;2.97;;;10.80;99.90;;;;;;5055133;28;20041;-75
2023/01/11 06:21:06;;;;;;;8.55;3.50;;;10.80;99.90;;;;;;5036920;28;20045;-75
2023/01/11 06:23:34;;;;;;;9.25;2.97;;;10.80;99.90;;;;;;5053785;28;20508;-75
2023/01/11 06:26:01;;;;;;;20.08;4.47;;;10.80;99.90;;;;;;5055519;28;20195;-75
2023/01/11 06:28:27;;;;;;;11.13;3.60;;;10.70;99.90;;;;;;5052924;28;20537;-75
2023/01/11 06:30:55;;;;;;;11.63;3.63;;;10.70;99.90;;;;;;5054059;28;20127;-76
2023/01/11 06:33:22;;;;;;;11.50;3.88;;;10.70;99.90;;;;;;5036574;28;20114;-75
2023/01/11 06:35:49;;;;;;;7.97;3.53;;;10.70;99.90;;;;;;5054449;28;20075;-75
2023/01/11 06:38:16;;;;;;;12.90;3.55;;;10.60;99.90;;;;;;5054492;28;20332;-74
2023/01/11 06:40:45;;;;;;;9.20;3.75;;;10.60;99.90;;;;;;5053975;28;20037;-76
2023/01/11 06:43:10;;;;;;;9.43;4.95;;;10.60;99.90;;;;;;5054381;28;20041;-75
2023/01/11 06:45:37;;;;;;;10.20;4.50;;;10.50;99.90;;;;;;5054840;28;20063;-75
2023/01/11 06:48:04;;;;;;;13.68;4.10;;;10.50;99.90;;;;;;5053305;28;20045;-74
2023/01/11 06:50:30;;;;;;;9.00;4.18;;;10.50;99.90;;;;;;5053074;28;20432;-75
2023/01/11 06:52:57;;;;;;;6.80;3.65;;;10.50;99.90;;;;;;5053422;28;20037;-73
2023/01/11 06:55:24;;;;;;;16.35;4.72;;;10.50;99.90;;;;;;5052647;28;20045;-74
2023/01/11 06:57:50;;;;;;;20.10;4.00;;;10.50;99.90;;;;;;5053770;28;20087;-76
2023/01/11 07:00:17;;;;;;;9.98;3.42;;;10.40;99.90;;;;;;5053604;28;20473;-75
2023/01/11 07:02:43;;;;;;;9.95;3.88;;;10.40;99.90;;;;;;5053590;28;20076;-75
2023/01/11 07:05:10;;;;;;;9.00;3.58;;;10.40;99.90;;;;;;5053782;28;20041;-76
2023/01/11 07:07:39;;;;;;;8.30;3.70;;;10.40;99.90;;;;;;5053892;28;20044;-75
2023/01/11 07:10:08;;;;;;;9.40;3.22;;;10.40;99.90;;;;;;5053961;28;20075;-76
2023/01/11 07:12:35;;;;;;;13.68;3.80;;;10.40;99.90;;;;;;5035611;28;20373;-75
2023/01/11 07:15:02;;;;;;;14.90;4.70;;;10.40;99.90;;;;;;5037200;28;20130;-75
2023/01/11 07:17:28;;;;;;;6.47;2.95;;;10.40;99.90;;;;;;5054780;28;20130;-75
2023/01/11 07:19:54;;;;;;;9.55;3.75;;;10.40;99.90;;;;;;5036001;28;20080;-76
2023/01/11 07:22:23;;;;;;;7.25;3.83;;;10.40;99.90;;;;;;5035250;28;20488;-75
2023/01/11 07:24:50;;;;;;;13.10;3.95;;;10.40;99.90;;;;;;5036231;28;20052;-75
2023/01/11 07:27:18;;;;;;;8.65;2.80;;;10.40;99.90;;;;;;5035462;28;20044;-75
2023/01/11 07:29:44;;;;;;;10.50;3.25;;;10.30;99.90;;;;;;5053483;28;20048;-75
2023/01/11 07:32:10;;;;;;;12.48;3.35;;;10.40;99.90;;;;;;5052884;28;20128;-73
2023/01/11 07:34:36;;;;;;;12.25;6.30;;;10.30;99.90;;;;;;5053393;28;20128;-74
2023/01/11 07:37:02;;;;;;;12.07;3.88;;;10.30;99.90;;;;;;5035448;28;20485;-74
2023/01/11 07:39:28;;;;;;;7.88;3.58;;;10.30;99.90;;;;;;5053498;28;20051;-74
2023/01/11 07:44:38;;;;;;;5.85;3.97;;;10.30;99.90;;;;;;5053880;28;20099;-74
2023/01/11 07:47:04;;;;;;;6.60;3.33;;;10.20;99.90;;;;;;5052976;28;20041;-74
2023/01/11 07:49:30;;;;;;;11.80;2.92;;;10.20;99.90;;;;;;5035903;28;20128;-75
2023/01/11 07:51:56;;;;;;;11.57;3.53;;;10.20;99.90;;;;;;5036405;28;20049;-75
2023/01/11 07:54:23;;;;;;;14.27;3.88;;;10.20;99.90;;;;;;5052986;28;20065;-75
2023/01/11 07:56:49;;;;;;;12.32;3.10;;;10.20;99.90;;;;;;5053209;28;20128;-74
2023/01/11 07:59:15;;;;;;;10.45;4.35;;;10.30;99.90;;;;;;5035221;28;20072;-75
2023/01/11 08:01:40;;;;;;;7.10;2.95;;;10.30;99.90;;;;;;5052689;28;20040;-73
2023/01/11 08:04:10;;;;;;;10.07;3.45;;;10.20;99.90;;;;;;5036136;28;20056;-74
2023/01/11 08:06:37;;;;;;;9.10;3.42;;;10.20;99.90;;;;;;5051870;28;20468;-74
2023/01/11 08:09:03;;;;;;;10.65;3.80;;;10.20;99.90;;;;;;5052791;28;20049;-73
2023/01/11 08:16:57;;;;;;;15.05;5.03;;;10.20;99.90;;;;;;5056098;28;20052;-74
2023/01/11 08:19:22;;;;;;;7.85;3.33;;;10.20;99.90;;;;;;5056705;28;20037;-74
2023/01/11 08:21:49;;;;;;;7.43;2.97;;;10.20;99.90;;;;;;5056789;28;20047;-73
2023/01/11 08:24:15;;;;;;;7.63;4.50;;;10.20;99.90;;;;;;5056817;28;20146;-74
2023/01/11 08:26:41;;;;;;;7.80;2.63;;;10.20;99.90;;;;;;5056987;28;20095;-74
2023/01/11 08:29:07;;;;;;;7.43;3.10;;;10.20;99.90;;;;;;5056967;28;20045;-74
2023/01/11 08:31:32;;;;;;;9.77;3.10;;;10.10;99.90;;;;;;5056675;28;20370;-75
2023/01/11 08:33:58;;;;;;;8.38;2.30;;;10.10;99.90;;;;;;5038982;28;20125;-74
2023/01/11 08:36:26;;;;;;;8.48;2.72;;;10.00;99.90;;;;;;5056211;28;20060;-74
2023/01/11 08:38:55;;;;;;;8.13;2.78;;;10.00;99.90;;;;;;5057374;28;20106;-75
2023/01/11 08:41:22;;;;;;;7.78;2.97;;;10.00;99.90;;;;;;5056730;28;20037;-75
2023/01/11 08:43:48;;;;;;;4.63;2.45;;;9.90;99.90;;;;;;5056554;28;20144;-74
2023/01/11 08:46:15;;;;;;;6.53;2.75;;;9.90;99.90;;;;;;5039533;28;20033;-76
2023/01/11 08:48:41;;;;;;;14.45;2.72;;;9.80;99.90;;;;;;5056941;28;20052;-75
2023/01/11 08:51:08;;;;;;;6.10;2.97;;;9.80;99.90;;;;;;5038858;28;20350;-74
2023/01/11 08:53:34;;;;;;;6.30;3.42;;;9.80;99.90;;;;;;5055467;28;20458;-75
2023/01/11 08:55:59;;;;;;;5.40;2.53;;;9.70;99.90;;;;;;5056390;28;20051;-75
2023/01/11 08:58:25;;;;;;;7.03;3.17;;;9.70;99.90;;;;;;5056539;28;20037;-75
2023/01/11 09:00:51;;;;;;;6.30;3.33;;;9.70;99.90;;;;;;5038860;28;20055;-75
2023/01/11 09:03:17;;;;;;;6.85;2.33;;;9.70;99.90;;;;;;5055864;28;20041;-75
2023/01/11 09:05:44;;;;;;;5.32;2.38;;;9.60;99.90;;;;;;5055995;28;20458;-75
2023/01/11 09:08:10;;;;;;;6.85;2.97;;;9.60;99.90;;;;;;5055766;28;20049;-75
2023/01/11 09:10:35;;;;;;;6.30;2.65;;;9.60;99.90;;;;;;5055433;28;20052;-75
2023/01/11 09:13:01;;;;;;;4.93;2.13;;;9.50;99.90;;;;;;5055416;28;20048;-76
2023/01/11 09:15:27;;;;;;;4.75;2.15;;;9.50;99.90;;;;;;5056631;28;20045;-75
2023/01/11 09:17:53;;;;;;;5.07;3.05;;;9.50;99.90;;;;;;5057683;28;20120;-75
2023/01/11 09:20:19;;;;;;;7.20;2.35;;;9.50;99.90;;;;;;5058587;28;20504;-75
2023/01/11 09:22:50;;;;;;;8.35;2.78;;;9.50;99.90;;;;;;5056103;28;20037;-75
2023/01/11 09:25:17;;;;;;;5.65;2.58;;;9.50;99.90;;;;;;5056053;28;20041;-75
2023/01/11 09:27:47;;;;;;;5.43;2.22;;;9.50;99.90;;;;;;5055280;28;20111;-75
2023/01/11 09:30:15;;;;;;;5.95;2.40;;;9.60;99.90;;;;;;5055854;28;20041;-75
2023/01/11 09:32:41;;;;;;;8.73;2.15;;;9.70;99.90;;;;;;5056599;28;20119;-74
2023/01/11 09:35:08;;;;;;;5.75;2.40;;;9.70;99.90;;;;;;5055475;28;20505;-74
2023/01/11 09:37:40;;;;;;;6.13;2.35;;;9.80;99.90;;;;;;5055349;28;20452;-76
2023/01/11 09:40:12;;;;;;;5.72;2.33;;;9.80;99.90;;;;;;5038418;28;20362;-75
2023/01/11 09:42:39;;;;;;;4.07;1.98;;;9.80;99.90;;;;;;5056470;28;20099;-75
2023/01/11 09:45:17;;;;;;;7.90;2.42;;;9.90;99.90;;;;;;5055685;28;20049;-75
2023/01/11 09:48:03;;;;;;;5.60;1.95;;;10.00;99.90;;;;;;5055822;28;20382;-75
2023/01/11 09:50:49;;;;;;;3.63;1.90;;;10.00;99.90;;;;;;5055739;28;20154;-75
2023/01/11 09:53:34;;;;;;;5.53;2.60;;;10.10;99.90;;;;;;5055395;28;20148;-75
2023/01/11 09:56:04;;;;;;;4.57;1.77;;;10.10;99.90;;;;;;5055880;28;20044;-75
2023/01/11 09:59:10;;;;;;;4.85;2.25;;;10.00;99.90;;;;;;5054896;28;20052;-76
2023/01/11 10:01:49;;;;;;;5.57;2.38;;;10.00;99.90;;;;;;5046510;28;20041;-76
2023/01/11 10:04:39;;;;;;;11.40;2.25;;;10.00;99.90;;;;;;5054956;28;20396;-74
2023/01/11 10:07:14;;;;;;;3.40;2.05;;;10.00;99.90;;;;;;5053889;28;20033;-76
2023/01/11 10:09:58;;;;;;;5.10;2.30;;;10.00;99.90;;;;;;5054323;28;20088;-76
2023/01/11 10:12:44;;;;;;;6.97;2.42;;;10.00;99.90;;;;;;5073452;28;20465;-76
2023/01/11 10:15:34;;;;;;;3.78;2.55;;;10.00;99.90;;;;;;5075912;28;20099;-75
2023/01/11 10:18:27;;;;;;;4.35;2.10;;;10.00;99.90;;;;;;5074328;28;20088;-75
2023/01/11 10:21:00;;;;;;;4.97;2.07;;;10.00;99.90;;;;;;5074219;28;20040;-75
2023/01/11 10:23:45;;;;;;;8.18;3.05;;;10.00;99.90;;;;;;5040147;28;20049;-75
2023/01/11 10:26:31;;;;;;;6.35;2.85;;;10.00;99.90;;;;;;5073788;28;20094;-75
2023/01/11 10:32:09;;;;;;;6.82;2.28;;;10.10;99.90;;;;;;5074485;28;20200;-75
2023/01/11 10:35:11;;;;;;;;;;;10.10;99.90;;;;;;5057096;28;20082;-76
2023/01/11 10:38:02;;;;;;;5.57;2.37;;;10.10;99.90;;;;;;5074324;28;19970;-76
2023/01/11 10:41:01;;;;;;;7.57;2.47;;;10.10;99.90;;;;;;5074957;28;20332;-74
2023/01/11 10:43:24;;;;;;;6.20;1.85;;;10.10;99.90;;;;;;5074472;28;20048;-75
2023/01/11 10:45:56;;;;;;;4.72;1.80;;;10.20;99.90;;;;;;5074191;28;20049;-76
2023/01/11 10:48:32;;;;;;;10.53;3.23;;;10.20;99.90;;;;;;5075071;28;20041;-75
2023/01/11 10:51:26;;;;;;;10.20;3.72;;;10.30;99.90;;;;;;5074145;28;20295;-75
2023/01/11 10:53:58;;;;;;;6.03;2.55;;;10.40;99.90;;;;;;5074665;28;20044;-76
2023/01/11 10:56:42;;;;;;;12.25;3.90;;;10.50;99.90;;;;;;5074218;28;20048;-75
2023/01/11 10:59:34;;;;;;;8.13;2.50;;;10.50;99.90;;;;;;5078887;28;20045;-76
2023/01/11 11:03:06;;;;;;;6.55;3.22;;;10.60;99.90;;;;;;5074531;28;20091;-75
2023/01/11 11:05:49;;;;;;;10.88;2.70;;;10.60;99.90;;;;;;4992394;28;20554;-76
2023/01/11 11:08:33;;;;;;;5.20;2.55;;;10.60;99.90;;;;;;4992666;28;20045;-76
2023/01/11 11:11:05;;;;;;;7.60;3.15;;;10.50;99.90;;;;;;5049769;28;20481;-76
2023/01/11 11:14:07;;;;;;;4.85;2.92;;;10.50;99.90;;;;;;5055723;28;20429;-76
2023/01/11 11:16:42;;;;;;;7.68;3.45;;;10.50;99.90;;;;;;5073893;28;20069;-77
2023/01/11 11:19:11;;;;;;;8.25;3.80;;;10.50;99.90;;;;;;5073847;28;20040;-76
2023/01/11 11:21:41;;;;;;;11.43;3.63;;;10.40;99.90;;;;;;5073765;28;20033;-76
2023/01/11 11:24:37;;;;;;;10.50;3.05;;;10.50;99.90;;;;;;5073957;28;20044;-76
2023/01/11 11:27:15;;;;;;;6.93;3.85;;;10.40;99.90;;;;;;5056900;28;20131;-76
2023/01/11 11:29:47;;;;;;;11.60;3.88;;;10.50;99.90;;;;;;5074682;28;20075;-76
2023/01/11 11:32:19;;;;;;;14.35;4.30;;;10.50;99.90;;;;;;5073997;28;20130;-77
2023/01/11 11:34:47;;;;;;;6.90;3.00;;;10.50;99.90;;;;;;5074717;28;20062;-77
2023/01/11 11:37:27;;;;;;;6.88;2.78;;;10.60;99.90;;;;;;5055075;28;20071;-77
2023/01/11 11:39:54;;;;;;;12.77;3.33;;;10.70;99.90;;;;;;5073626;28;20060;-77
2023/01/11 11:42:21;;;;;;;9.35;4.50;;;10.70;99.90;;;;;;5073632;28;20044;-77
2023/01/11 11:45:14;;;;;;;8.50;3.05;;;10.80;99.90;;;;;;5073751;28;20159;-77
2023/01/11 11:47:42;;;;;;;7.25;3.45;;;10.80;99.90;;;;;;5071042;28;20496;-77
2023/01/11 11:50:27;;;;;;;6.20;3.38;;;10.80;99.90;;;;;;5075541;28;20048;-77
2023/01/11 11:53:01;;;;;;;7.60;2.90;;;10.80;99.90;;;;;;5078314;28;20048;-77
2023/01/11 11:55:29;;;;;;;10.00;3.00;;;10.80;99.90;;;;;;5077747;28;20045;-77
2023/01/11 11:57:57;;;;;;;6.18;2.63;;;10.90;99.90;;;;;;5077475;28;20473;-78
2023/01/11 12:00:27;;;;;;;8.95;2.78;;;10.90;99.90;;;;;;5077763;28;20041;-77
2023/01/11 12:03:11;;;;;;;9.38;3.25;;;10.90;99.90;;;;;;5059575;28;20044;-77
2023/01/11 12:05:46;;;;;;;8.82;2.67;;;10.90;99.90;;;;;;5078525;28;20047;-77
2023/01/11 12:08:13;;;;;;;10.35;3.00;;;10.90;99.90;;;;;;5058290;28;20432;-77
2023/01/11 12:10:51;;;;;;;10.27;3.00;;;10.80;99.90;;;;;;5056856;28;20053;-77
2023/01/11 12:13:56;;;;;;;12.20;5.35;;;10.80;99.90;;;;;;5057481;28;20047;-76
2023/01/11 12:16:22;;;;;;;6.53;4.13;;;10.70;99.90;;;;;;5057365;28;20044;-77
2023/01/11 12:18:48;;;;;;;12.13;3.35;;;10.80;99.90;;;;;;5056982;28;20128;-77
2023/01/11 12:21:25;;;;;;;12.88;3.17;;;10.80;99.90;;;;;;5058301;28;20036;-76
2023/01/11 12:24:06;;;;;;;12.35;3.30;;;10.70;99.90;;;;;;5057280;28;20063;-75
2023/01/11 12:27:00;;;;;;;15.35;3.55;;;10.70;99.90;;;;;;5075861;28;20127;-74
2023/01/11 12:30:17;;;;;;;17.92;4.00;;;10.80;99.90;;;;;;5059219;28;20536;-76
2023/01/11 12:32:58;;;;;;;7.95;3.92;;;10.80;99.90;;;;;;5033164;28;20115;-75
2023/01/11 12:35:31;;;;;;;8.98;3.97;;;10.90;99.90;;;;;;5055822;28;20080;-75
2023/01/11 12:38:33;;;;;;;9.48;2.85;;;10.90;99.90;;;;;;5061835;28;20427;-75
2023/01/11 12:41:42;;;;;;;8.85;3.22;;;10.90;99.90;;;;;;5053618;28;20454;-75
2023/01/11 12:44:13;;;;;;;14.48;5.18;;;10.80;99.90;;;;;;5055003;28;20508;-75
2023/01/11 12:47:20;;;;;;;10.18;3.70;;;10.80;99.90;;;;;;5077897;28;20048;-75
2023/01/11 12:50:08;;;;;;;18.50;3.78;;;11.20;99.90;;;;;;5063283;28;20045;-75
2023/01/11 12:52:39;;;;;;;8.15;3.85;;;10.70;99.90;;;;;;5056130;28;20033;-76
2023/01/11 12:55:20;;;;;;;11.93;3.25;;;10.70;99.90;;;;;;5067416;28;20040;-75
2023/01/11 12:58:09;;;;;;;7.10;3.50;;;10.60;99.90;;;;;;5072428;28;20084;-76
2023/01/11 13:00:59;;;;;;;7.70;3.22;;;10.70;99.90;;;;;;5052482;28;20040;-76
2023/01/11 13:03:32;;;;;;;9.38;4.35;;;10.80;99.90;;;;;;5067677;28;20096;-75
2023/01/11 13:06:15;;;;;;;17.05;3.30;;;10.70;99.90;;;;;;5068326;28;20048;-76
2023/01/11 13:08:45;;;;;;;8.85;3.70;;;10.60;99.90;;;;;;5079445;28;20036;-76
2023/01/11 13:11:42;;;;;;;9.30;4.35;;;10.60;99.90;;;;;;5077827;28;20048;-76
2023/01/11 13:14:15;;;;;;;7.40;3.30;;;10.60;99.90;;;;;;5075575;28;20485;-76
2023/01/11 13:17:10;;;;;;;9.40;3.00;;;10.50;99.90;;;;;;5071826;28;20048;-75
2023/01/11 13:19:56;;;;;;;9.02;4.45;;;10.60;99.90;;;;;;5073628;28;20163;-78
2023/01/11 13:22:28;;;;;;;9.13;3.45;;;10.60;99.90;;;;;;5082488;28;20075;-80
2023/01/11 13:24:55;;;;;;;17.27;5.80;;;10.50;99.90;;;;;;5070245;28;20037;-77
2023/01/11 13:27:23;;;;;;;10.73;3.53;;;10.60;99.90;;;;;;5061221;28;20751;-76
2023/01/11 13:29:52;;;;;;;10.65;4.15;;;10.60;99.90;;;;;;5072816;28;20106;-76
2023/01/11 13:32:32;;;;;;;10.45;3.60;;;10.50;99.90;;;;;;5068403;28;20029;-76
2023/01/11 13:35:00;;;;;;;8.73;3.60;;;10.50;99.90;;;;;;5060638;28;20469;-76
2023/01/11 13:38:03;;;;;;;12.35;3.78;;;10.50;99.90;;;;;;5056262;28;20051;-76
2023/01/11 13:40:36;;;;;;;7.28;3.45;;;10.60;99.90;;;;;;5073562;28;20040;-76
2023/01/11 13:43:18;;;;;;;;;;;10.60;99.90;;;;;;5053558;28;20048;-76